sensor_id;sensor_type;location;lat;lon;timestamp;P1;durP1;ratioP1;P2;durP2;ratioP2
54247;SDS011;40161;39.768;2.722;2023-07-22T00:02:22;12.32;;;4.13;;
54247;SDS011;40161;39.768;2.722;2023-07-22T00:04:51;11.50;;;3.90;;
54247;SDS011;40161;39.768;2.722;2023-07-22T00:07:17;10.13;;;4.07;;
54247;SDS011;40161;39.768;2.722;2023-07-22T00:09:43;12.95;;;4.07;;
54247;SDS011;40161;39.768;2.722;2023-07-22T00:12:09;11.40;;;4.38;;
54247;SDS011;40161;39.768;2.722;2023-07-22T00:14:39;15.77;;;4.22;;
54247;SDS011;40161;39.768;2.722;2023-07-22T00:17:06;10.83;;;3.90;;
54247;SDS011;40161;39.768;2.722;2023-07-22T00:19:33;10.38;;;3.58;;
54247;SDS011;40161;39.768;2.722;2023-07-22T00:21:59;9.75;;;3.78;;
54247;SDS011;40161;39.768;2.722;2023-07-22T00:24:24;9.05;;;3.60;;
54247;SDS011;40161;39.768;2.722;2023-07-22T00:26:50;9.68;;;3.67;;
54247;SDS011;40161;39.768;2.722;2023-07-22T00:29:16;9.98;;;3.85;;
54247;SDS011;40161;39.768;2.722;2023-07-22T00:31:41;8.68;;;3.83;;
54247;SDS011;40161;39.768;2.722;2023-07-22T00:34:07;8.00;;;3.80;;
54247;SDS011;40161;39.768;2.722;2023-07-22T00:36:33;8.63;;;3.40;;
54247;SDS011;40161;39.768;2.722;2023-07-22T00:38:59;10.38;;;4.10;;
54247;SDS011;40161;39.768;2.722;2023-07-22T00:41:24;8.40;;;3.70;;
54247;SDS011;40161;39.768;2.722;2023-07-22T00:43:50;11.02;;;4.30;;
54247;SDS011;40161;39.768;2.722;2023-07-22T00:46:15;10.48;;;4.38;;
54247;SDS011;40161;39.768;2.722;2023-07-22T00:48:41;8.65;;;4.00;;
54247;SDS011;40161;39.768;2.722;2023-07-22T00:51:07;10.32;;;4.03;;
54247;SDS011;40161;39.768;2.722;2023-07-22T00:53:33;9.45;;;3.53;;
54247;SDS011;40161;39.768;2.722;2023-07-22T00:55:58;10.63;;;4.28;;
54247;SDS011;40161;39.768;2.722;2023-07-22T00:58:24;8.10;;;4.00;;
54247;SDS011;40161;39.768;2.722;2023-07-22T01:00:50;9.68;;;4.00;;
54247;SDS011;40161;39.768;2.722;2023-07-22T01:03:15;9.68;;;4.28;;
54247;SDS011;40161;39.768;2.722;2023-07-22T01:05:41;10.88;;;4.05;;
54247;SDS011;40161;39.768;2.722;2023-07-22T01:08:07;11.88;;;4.30;;
54247;SDS011;40161;39.768;2.722;2023-07-22T01:10:32;10.10;;;4.05;;
54247;SDS011;40161;39.768;2.722;2023-07-22T01:12:58;9.35;;;4.38;;
54247;SDS011;40161;39.768;2.722;2023-07-22T01:15:24;8.38;;;4.15;;
54247;SDS011;40161;39.768;2.722;2023-07-22T01:17:50;11.23;;;5.05;;
54247;SDS011;40161;39.768;2.722;2023-07-22T01:20:16;10.73;;;4.60;;
54247;SDS011;40161;39.768;2.722;2023-07-22T01:22:51;10.90;;;4.57;;
54247;SDS011;40161;39.768;2.722;2023-07-22T01:25:18;7.90;;;3.90;;
54247;SDS011;40161;39.768;2.722;2023-07-22T01:27:48;9.55;;;4.18;;
54247;SDS011;40161;39.768;2.722;2023-07-22T01:30:14;10.25;;;4.10;;
54247;SDS011;40161;39.768;2.722;2023-07-22T01:32:40;11.73;;;4.70;;
54247;SDS011;40161;39.768;2.722;2023-07-22T01:35:06;8.90;;;4.68;;
54247;SDS011;40161;39.768;2.722;2023-07-22T01:37:35;10.05;;;4.40;;
54247;SDS011;40161;39.768;2.722;2023-07-22T01:40:01;7.35;;;3.80;;
54247;SDS011;40161;39.768;2.722;2023-07-22T01:42:40;11.02;;;4.78;;
54247;SDS011;40161;39.768;2.722;2023-07-22T01:45:07;8.20;;;4.25;;
54247;SDS011;40161;39.768;2.722;2023-07-22T01:47:34;7.47;;;4.10;;
54247;SDS011;40161;39.768;2.722;2023-07-22T01:50:03;7.57;;;4.25;;
54247;SDS011;40161;39.768;2.722;2023-07-22T01:52:31;8.30;;;4.10;;
54247;SDS011;40161;39.768;2.722;2023-07-22T01:54:57;10.77;;;4.60;;
54247;SDS011;40161;39.768;2.722;2023-07-22T01:57:22;11.98;;;4.28;;
54247;SDS011;40161;39.768;2.722;2023-07-22T01:59:48;10.00;;;4.10;;
54247;SDS011;40161;39.768;2.722;2023-07-22T02:02:13;9.93;;;4.53;;
54247;SDS011;40161;39.768;2.722;2023-07-22T02:04:39;9.63;;;4.40;;
54247;SDS011;40161;39.768;2.722;2023-07-22T02:07:05;9.13;;;4.07;;
54247;SDS011;40161;39.768;2.722;2023-07-22T02:09:31;9.60;;;4.25;;
54247;SDS011;40161;39.768;2.722;2023-07-22T02:11:58;7.20;;;3.88;;
54247;SDS011;40161;39.768;2.722;2023-07-22T02:14:23;7.57;;;3.97;;
54247;SDS011;40161;39.768;2.722;2023-07-22T02:16:49;7.10;;;4.13;;
54247;SDS011;40161;39.768;2.722;2023-07-22T02:19:15;9.15;;;4.05;;
54247;SDS011;40161;39.768;2.722;2023-07-22T02:21:41;10.23;;;4.35;;
54247;SDS011;40161;39.768;2.722;2023-07-22T02:24:07;6.78;;;3.58;;
54247;SDS011;40161;39.768;2.722;2023-07-22T02:26:33;8.50;;;4.47;;
54247;SDS011;40161;39.768;2.722;2023-07-22T02:28:59;8.02;;;4.32;;
54247;SDS011;40161;39.768;2.722;2023-07-22T02:31:24;8.68;;;4.20;;
54247;SDS011;40161;39.768;2.722;2023-07-22T02:33:50;7.25;;;3.78;;
54247;SDS011;40161;39.768;2.722;2023-07-22T02:36:16;6.70;;;3.90;;
54247;SDS011;40161;39.768;2.722;2023-07-22T02:38:41;7.07;;;3.85;;
54247;SDS011;40161;39.768;2.722;2023-07-22T02:41:07;8.75;;;4.50;;
54247;SDS011;40161;39.768;2.722;2023-07-22T02:43:33;9.32;;;4.07;;
54247;SDS011;40161;39.768;2.722;2023-07-22T02:46:00;7.03;;;3.50;;
54247;SDS011;40161;39.768;2.722;2023-07-22T02:48:28;8.90;;;5.30;;
54247;SDS011;40161;39.768;2.722;2023-07-22T02:50:54;8.35;;;4.10;;
54247;SDS011;40161;39.768;2.722;2023-07-22T02:53:20;9.65;;;4.70;;
54247;SDS011;40161;39.768;2.722;2023-07-22T02:55:46;8.80;;;4.30;;
54247;SDS011;40161;39.768;2.722;2023-07-22T02:58:11;7.68;;;3.92;;
54247;SDS011;40161;39.768;2.722;2023-07-22T03:00:37;11.05;;;4.45;;
54247;SDS011;40161;39.768;2.722;2023-07-22T03:03:03;8.68;;;4.10;;
54247;SDS011;40161;39.768;2.722;2023-07-22T03:05:30;7.97;;;3.70;;
54247;SDS011;40161;39.768;2.722;2023-07-22T03:07:58;8.45;;;3.83;;
54247;SDS011;40161;39.768;2.722;2023-07-22T03:10:24;9.80;;;4.75;;
54247;SDS011;40161;39.768;2.722;2023-07-22T03:12:55;8.77;;;4.00;;
54247;SDS011;40161;39.768;2.722;2023-07-22T03:15:21;6.75;;;3.92;;
54247;SDS011;40161;39.768;2.722;2023-07-22T03:17:47;10.52;;;4.85;;
54247;SDS011;40161;39.768;2.722;2023-07-22T03:20:13;10.63;;;4.70;;
54247;SDS011;40161;39.768;2.722;2023-07-22T03:22:39;8.98;;;4.50;;
54247;SDS011;40161;39.768;2.722;2023-07-22T03:25:08;8.48;;;4.32;;
54247;SDS011;40161;39.768;2.722;2023-07-22T03:27:38;7.68;;;4.60;;
54247;SDS011;40161;39.768;2.722;2023-07-22T03:30:04;10.45;;;3.92;;
54247;SDS011;40161;39.768;2.722;2023-07-22T03:32:40;8.68;;;4.68;;
54247;SDS011;40161;39.768;2.722;2023-07-22T03:35:07;8.65;;;4.07;;
54247;SDS011;40161;39.768;2.722;2023-07-22T03:37:34;8.68;;;4.20;;
54247;SDS011;40161;39.768;2.722;2023-07-22T03:40:01;11.70;;;4.65;;
54247;SDS011;40161;39.768;2.722;2023-07-22T03:42:27;7.45;;;4.30;;
54247;SDS011;40161;39.768;2.722;2023-07-22T03:44:54;10.30;;;4.47;;
54247;SDS011;40161;39.768;2.722;2023-07-22T03:47:19;10.13;;;4.50;;
54247;SDS011;40161;39.768;2.722;2023-07-22T03:49:45;8.55;;;4.25;;
54247;SDS011;40161;39.768;2.722;2023-07-22T03:52:10;9.38;;;4.00;;
54247;SDS011;40161;39.768;2.722;2023-07-22T03:54:39;6.90;;;4.28;;
54247;SDS011;40161;39.768;2.722;2023-07-22T03:57:05;7.20;;;4.20;;
54247;SDS011;40161;39.768;2.722;2023-07-22T03:59:31;8.05;;;4.20;;
54247;SDS011;40161;39.768;2.722;2023-07-22T04:01:57;9.13;;;4.60;;
54247;SDS011;40161;39.768;2.722;2023-07-22T04:04:22;8.50;;;4.45;;
54247;SDS011;40161;39.768;2.722;2023-07-22T04:06:48;9.05;;;4.57;;
54247;SDS011;40161;39.768;2.722;2023-07-22T04:09:13;8.85;;;4.15;;
54247;SDS011;40161;39.768;2.722;2023-07-22T04:11:39;8.15;;;4.22;;
54247;SDS011;40161;39.768;2.722;2023-07-22T04:14:04;10.60;;;4.20;;
54247;SDS011;40161;39.768;2.722;2023-07-22T04:16:30;8.02;;;4.47;;
54247;SDS011;40161;39.768;2.722;2023-07-22T04:18:56;8.73;;;4.68;;
54247;SDS011;40161;39.768;2.722;2023-07-22T04:21:21;7.25;;;4.47;;
54247;SDS011;40161;39.768;2.722;2023-07-22T04:23:47;7.75;;;4.43;;
54247;SDS011;40161;39.768;2.722;2023-07-22T04:26:14;9.85;;;4.55;;
54247;SDS011;40161;39.768;2.722;2023-07-22T04:28:39;9.82;;;4.03;;
54247;SDS011;40161;39.768;2.722;2023-07-22T04:31:05;7.97;;;4.70;;
54247;SDS011;40161;39.768;2.722;2023-07-22T04:33:30;9.23;;;4.75;;
54247;SDS011;40161;39.768;2.722;2023-07-22T04:35:57;9.48;;;4.55;;
54247;SDS011;40161;39.768;2.722;2023-07-22T04:38:24;10.60;;;5.20;;
54247;SDS011;40161;39.768;2.722;2023-07-22T04:40:50;9.02;;;4.40;;
54247;SDS011;40161;39.768;2.722;2023-07-22T04:43:16;10.60;;;4.65;;
54247;SDS011;40161;39.768;2.722;2023-07-22T04:45:44;7.88;;;4.70;;
54247;SDS011;40161;39.768;2.722;2023-07-22T04:48:13;8.95;;;4.57;;
54247;SDS011;40161;39.768;2.722;2023-07-22T04:50:39;10.13;;;4.43;;
54247;SDS011;40161;39.768;2.722;2023-07-22T04:53:06;9.00;;;4.90;;
54247;SDS011;40161;39.768;2.722;2023-07-22T04:55:32;11.13;;;5.25;;
54247;SDS011;40161;39.768;2.722;2023-07-22T04:57:57;9.32;;;4.30;;
54247;SDS011;40161;39.768;2.722;2023-07-22T05:00:23;10.20;;;4.55;;
54247;SDS011;40161;39.768;2.722;2023-07-22T05:02:49;8.50;;;4.95;;
54247;SDS011;40161;39.768;2.722;2023-07-22T05:05:15;9.93;;;4.75;;
54247;SDS011;40161;39.768;2.722;2023-07-22T05:07:41;10.32;;;4.85;;
54247;SDS011;40161;39.768;2.722;2023-07-22T05:10:08;9.70;;;4.75;;
54247;SDS011;40161;39.768;2.722;2023-07-22T05:12:37;9.55;;;4.57;;
54247;SDS011;40161;39.768;2.722;2023-07-22T05:15:04;9.48;;;4.68;;
54247;SDS011;40161;39.768;2.722;2023-07-22T05:17:30;8.25;;;4.70;;
54247;SDS011;40161;39.768;2.722;2023-07-22T05:19:56;10.05;;;4.82;;
54247;SDS011;40161;39.768;2.722;2023-07-22T05:22:22;11.02;;;4.82;;
54247;SDS011;40161;39.768;2.722;2023-07-22T05:24:48;8.65;;;4.30;;
54247;SDS011;40161;39.768;2.722;2023-07-22T05:27:14;7.90;;;4.60;;
54247;SDS011;40161;39.768;2.722;2023-07-22T05:29:40;10.05;;;5.22;;
54247;SDS011;40161;39.768;2.722;2023-07-22T05:32:05;11.35;;;4.85;;
54247;SDS011;40161;39.768;2.722;2023-07-22T05:34:31;7.90;;;4.70;;
54247;SDS011;40161;39.768;2.722;2023-07-22T05:36:57;8.88;;;4.97;;
54247;SDS011;40161;39.768;2.722;2023-07-22T05:39:22;8.82;;;4.35;;
54247;SDS011;40161;39.768;2.722;2023-07-22T05:41:48;9.70;;;4.70;;
54247;SDS011;40161;39.768;2.722;2023-07-22T05:44:14;10.00;;;4.70;;
54247;SDS011;40161;39.768;2.722;2023-07-22T05:46:39;11.50;;;4.53;;
54247;SDS011;40161;39.768;2.722;2023-07-22T05:49:05;10.30;;;4.40;;
54247;SDS011;40161;39.768;2.722;2023-07-22T05:51:30;8.65;;;3.88;;
54247;SDS011;40161;39.768;2.722;2023-07-22T05:53:56;8.00;;;3.58;;
54247;SDS011;40161;39.768;2.722;2023-07-22T05:56:22;7.53;;;3.17;;
54247;SDS011;40161;39.768;2.722;2023-07-22T05:58:48;8.25;;;2.90;;
54247;SDS011;40161;39.768;2.722;2023-07-22T06:01:14;7.72;;;3.05;;
54247;SDS011;40161;39.768;2.722;2023-07-22T06:03:40;7.18;;;3.20;;
54247;SDS011;40161;39.768;2.722;2023-07-22T06:06:06;7.65;;;2.78;;
54247;SDS011;40161;39.768;2.722;2023-07-22T06:08:31;6.35;;;2.97;;
54247;SDS011;40161;39.768;2.722;2023-07-22T06:10:57;8.32;;;3.42;;
54247;SDS011;40161;39.768;2.722;2023-07-22T06:13:22;7.88;;;2.63;;
54247;SDS011;40161;39.768;2.722;2023-07-22T06:15:48;10.10;;;3.00;;
54247;SDS011;40161;39.768;2.722;2023-07-22T06:18:13;10.50;;;3.70;;
54247;SDS011;40161;39.768;2.722;2023-07-22T06:20:39;8.85;;;3.10;;
54247;SDS011;40161;39.768;2.722;2023-07-22T06:23:05;6.90;;;2.72;;
54247;SDS011;40161;39.768;2.722;2023-07-22T06:25:31;8.18;;;3.25;;
54247;SDS011;40161;39.768;2.722;2023-07-22T06:27:58;8.25;;;2.88;;
54247;SDS011;40161;39.768;2.722;2023-07-22T06:30:23;8.73;;;2.92;;
54247;SDS011;40161;39.768;2.722;2023-07-22T06:32:49;8.73;;;3.40;;
54247;SDS011;40161;39.768;2.722;2023-07-22T06:35:14;10.27;;;2.85;;
54247;SDS011;40161;39.768;2.722;2023-07-22T06:37:40;7.85;;;2.75;;
54247;SDS011;40161;39.768;2.722;2023-07-22T06:40:05;7.72;;;2.90;;
54247;SDS011;40161;39.768;2.722;2023-07-22T06:42:32;9.23;;;2.85;;
54247;SDS011;40161;39.768;2.722;2023-07-22T06:44:57;8.00;;;3.10;;
54247;SDS011;40161;39.768;2.722;2023-07-22T06:47:23;11.13;;;3.25;;
54247;SDS011;40161;39.768;2.722;2023-07-22T06:49:49;9.52;;;3.92;;
54247;SDS011;40161;39.768;2.722;2023-07-22T06:52:16;8.90;;;3.05;;
54247;SDS011;40161;39.768;2.722;2023-07-22T06:54:42;9.20;;;2.80;;
54247;SDS011;40161;39.768;2.722;2023-07-22T06:57:07;7.68;;;3.22;;
54247;SDS011;40161;39.768;2.722;2023-07-22T06:59:33;7.43;;;2.80;;
54247;SDS011;40161;39.768;2.722;2023-07-22T07:01:59;8.35;;;3.28;;
54247;SDS011;40161;39.768;2.722;2023-07-22T07:04:25;8.60;;;3.42;;
54247;SDS011;40161;39.768;2.722;2023-07-22T07:06:51;9.80;;;3.42;;
54247;SDS011;40161;39.768;2.722;2023-07-22T07:09:16;7.82;;;3.63;;
54247;SDS011;40161;39.768;2.722;2023-07-22T07:11:42;7.05;;;3.10;;
54247;SDS011;40161;39.768;2.722;2023-07-22T07:14:07;10.05;;;3.70;;
54247;SDS011;40161;39.768;2.722;2023-07-22T07:16:33;8.52;;;3.22;;
54247;SDS011;40161;39.768;2.722;2023-07-22T07:18:59;9.20;;;4.00;;
54247;SDS011;40161;39.768;2.722;2023-07-22T07:21:26;9.65;;;3.55;;
54247;SDS011;40161;39.768;2.722;2023-07-22T07:23:52;9.85;;;3.22;;
54247;SDS011;40161;39.768;2.722;2023-07-22T07:26:19;11.73;;;3.40;;
54247;SDS011;40161;39.768;2.722;2023-07-22T07:28:45;8.35;;;3.22;;
54247;SDS011;40161;39.768;2.722;2023-07-22T07:31:17;9.57;;;3.35;;
54247;SDS011;40161;39.768;2.722;2023-07-22T07:33:43;9.35;;;3.63;;
54247;SDS011;40161;39.768;2.722;2023-07-22T07:36:09;8.43;;;3.42;;
54247;SDS011;40161;39.768;2.722;2023-07-22T07:38:34;7.97;;;3.22;;
54247;SDS011;40161;39.768;2.722;2023-07-22T07:41:01;7.45;;;3.33;;
54247;SDS011;40161;39.768;2.722;2023-07-22T07:43:28;6.57;;;3.10;;
54247;SDS011;40161;39.768;2.722;2023-07-22T07:48:53;7.22;;;3.50;;
54247;SDS011;40161;39.768;2.722;2023-07-22T07:51:21;8.90;;;3.40;;
54247;SDS011;40161;39.768;2.722;2023-07-22T07:53:48;8.75;;;3.20;;
54247;SDS011;40161;39.768;2.722;2023-07-22T07:56:14;9.10;;;3.60;;
54247;SDS011;40161;39.768;2.722;2023-07-22T07:58:40;8.43;;;3.40;;
54247;SDS011;40161;39.768;2.722;2023-07-22T08:01:06;7.47;;;3.67;;
54247;SDS011;40161;39.768;2.722;2023-07-22T08:03:33;7.95;;;3.83;;
54247;SDS011;40161;39.768;2.722;2023-07-22T08:06:01;9.70;;;3.95;;
54247;SDS011;40161;39.768;2.722;2023-07-22T08:08:27;9.07;;;3.55;;
54247;SDS011;40161;39.768;2.722;2023-07-22T08:11:03;9.05;;;3.92;;
54247;SDS011;40161;39.768;2.722;2023-07-22T08:13:31;7.88;;;3.70;;
54247;SDS011;40161;39.768;2.722;2023-07-22T08:15:58;9.68;;;3.75;;
54247;SDS011;40161;39.768;2.722;2023-07-22T08:18:25;9.25;;;3.60;;
54247;SDS011;40161;39.768;2.722;2023-07-22T08:20:51;9.60;;;3.72;;
54247;SDS011;40161;39.768;2.722;2023-07-22T08:23:18;8.15;;;3.65;;
54247;SDS011;40161;39.768;2.722;2023-07-22T08:25:44;8.80;;;3.40;;
54247;SDS011;40161;39.768;2.722;2023-07-22T08:28:10;11.60;;;4.13;;
54247;SDS011;40161;39.768;2.722;2023-07-22T08:30:36;9.20;;;3.95;;
54247;SDS011;40161;39.768;2.722;2023-07-22T08:33:02;10.00;;;3.95;;
54247;SDS011;40161;39.768;2.722;2023-07-22T08:35:27;11.95;;;3.65;;
54247;SDS011;40161;39.768;2.722;2023-07-22T08:37:53;7.82;;;3.28;;
54247;SDS011;40161;39.768;2.722;2023-07-22T08:40:19;7.68;;;3.55;;
54247;SDS011;40161;39.768;2.722;2023-07-22T08:42:45;9.88;;;4.25;;
54247;SDS011;40161;39.768;2.722;2023-07-22T08:45:13;8.80;;;3.60;;
54247;SDS011;40161;39.768;2.722;2023-07-22T08:47:43;9.65;;;3.92;;
54247;SDS011;40161;39.768;2.722;2023-07-22T08:50:11;9.23;;;3.95;;
54247;SDS011;40161;39.768;2.722;2023-07-22T08:52:41;9.93;;;3.85;;
54247;SDS011;40161;39.768;2.722;2023-07-22T08:55:09;10.25;;;4.05;;
54247;SDS011;40161;39.768;2.722;2023-07-22T08:57:36;10.10;;;3.95;;
54247;SDS011;40161;39.768;2.722;2023-07-22T09:00:03;9.65;;;3.97;;
54247;SDS011;40161;39.768;2.722;2023-07-22T09:02:32;9.25;;;3.80;;
54247;SDS011;40161;39.768;2.722;2023-07-22T09:04:59;8.30;;;3.70;;
54247;SDS011;40161;39.768;2.722;2023-07-22T09:07:24;8.05;;;3.22;;
54247;SDS011;40161;39.768;2.722;2023-07-22T09:09:51;8.68;;;4.32;;
54247;SDS011;40161;39.768;2.722;2023-07-22T09:12:18;9.85;;;4.05;;
54247;SDS011;40161;39.768;2.722;2023-07-22T09:14:46;8.30;;;2.97;;
54247;SDS011;40161;39.768;2.722;2023-07-22T09:17:13;9.15;;;4.47;;
54247;SDS011;40161;39.768;2.722;2023-07-22T09:19:38;9.43;;;3.55;;
54247;SDS011;40161;39.768;2.722;2023-07-22T09:22:04;10.40;;;3.50;;
54247;SDS011;40161;39.768;2.722;2023-07-22T09:24:30;10.25;;;3.42;;
54247;SDS011;40161;39.768;2.722;2023-07-22T09:26:55;8.82;;;3.53;;
54247;SDS011;40161;39.768;2.722;2023-07-22T09:29:32;9.35;;;3.58;;
54247;SDS011;40161;39.768;2.722;2023-07-22T09:32:02;7.45;;;3.17;;
54247;SDS011;40161;39.768;2.722;2023-07-22T09:34:28;10.05;;;3.65;;
54247;SDS011;40161;39.768;2.722;2023-07-22T09:36:55;8.77;;;3.53;;
54247;SDS011;40161;39.768;2.722;2023-07-22T09:39:22;6.70;;;3.70;;
54247;SDS011;40161;39.768;2.722;2023-07-22T09:41:49;8.00;;;3.30;;
54247;SDS011;40161;39.768;2.722;2023-07-22T09:44:15;7.95;;;3.88;;
54247;SDS011;40161;39.768;2.722;2023-07-22T09:46:41;10.70;;;3.42;;
54247;SDS011;40161;39.768;2.722;2023-07-22T09:49:11;7.93;;;3.67;;
54247;SDS011;40161;39.768;2.722;2023-07-22T09:51:38;8.70;;;3.35;;
54247;SDS011;40161;39.768;2.722;2023-07-22T09:54:05;10.63;;;4.43;;
54247;SDS011;40161;39.768;2.722;2023-07-22T09:56:32;10.00;;;3.45;;
54247;SDS011;40161;39.768;2.722;2023-07-22T09:59:07;8.32;;;3.25;;
54247;SDS011;40161;39.768;2.722;2023-07-22T10:01:37;9.35;;;3.10;;
54247;SDS011;40161;39.768;2.722;2023-07-22T10:04:04;9.68;;;3.50;;
54247;SDS011;40161;39.768;2.722;2023-07-22T10:06:31;7.80;;;3.20;;
54247;SDS011;40161;39.768;2.722;2023-07-22T10:09:04;7.40;;;3.33;;
54247;SDS011;40161;39.768;2.722;2023-07-22T10:11:34;11.35;;;3.67;;
54247;SDS011;40161;39.768;2.722;2023-07-22T10:14:03;9.77;;;3.78;;
54247;SDS011;40161;39.768;2.722;2023-07-22T10:16:30;8.35;;;3.47;;
54247;SDS011;40161;39.768;2.722;2023-07-22T10:18:56;9.63;;;4.13;;
54247;SDS011;40161;39.768;2.722;2023-07-22T10:21:23;7.68;;;3.28;;
54247;SDS011;40161;39.768;2.722;2023-07-22T10:23:50;10.32;;;3.70;;
54247;SDS011;40161;39.768;2.722;2023-07-22T10:26:17;10.82;;;4.22;;
54247;SDS011;40161;39.768;2.722;2023-07-22T10:28:44;11.27;;;3.33;;
54247;SDS011;40161;39.768;2.722;2023-07-22T10:31:11;9.98;;;3.22;;
54247;SDS011;40161;39.768;2.722;2023-07-22T10:33:37;11.25;;;3.53;;
54247;SDS011;40161;39.768;2.722;2023-07-22T10:38:39;7.05;;;3.63;;
54247;SDS011;40161;39.768;2.722;2023-07-22T10:41:12;10.48;;;3.55;;
54247;SDS011;40161;39.768;2.722;2023-07-22T10:43:38;12.73;;;3.90;;
54247;SDS011;40161;39.768;2.722;2023-07-22T10:46:05;12.30;;;3.38;;
54247;SDS011;40161;39.768;2.722;2023-07-22T10:51:07;8.45;;;3.53;;
54247;SDS011;40161;39.768;2.722;2023-07-22T10:53:42;8.68;;;3.70;;
54247;SDS011;40161;39.768;2.722;2023-07-22T10:56:14;12.73;;;4.32;;
54247;SDS011;40161;39.768;2.722;2023-07-22T11:01:23;8.57;;;3.55;;
54247;SDS011;40161;39.768;2.722;2023-07-22T11:14:30;11.18;;;3.38;;
54247;SDS011;40161;39.768;2.722;2023-07-22T11:16:59;10.98;;;4.40;;
54247;SDS011;40161;39.768;2.722;2023-07-22T11:19:25;10.52;;;3.55;;
54247;SDS011;40161;39.768;2.722;2023-07-22T11:21:52;9.50;;;3.45;;
54247;SDS011;40161;39.768;2.722;2023-07-22T11:24:19;9.13;;;3.55;;
54247;SDS011;40161;39.768;2.722;2023-07-22T11:26:46;9.05;;;3.53;;
54247;SDS011;40161;39.768;2.722;2023-07-22T11:29:12;8.95;;;3.58;;
54247;SDS011;40161;39.768;2.722;2023-07-22T11:31:39;9.88;;;3.42;;
54247;SDS011;40161;39.768;2.722;2023-07-22T11:34:11;9.38;;;3.95;;
54247;SDS011;40161;39.768;2.722;2023-07-22T11:36:37;10.27;;;3.72;;
54247;SDS011;40161;39.768;2.722;2023-07-22T11:41:29;10.73;;;3.63;;
54247;SDS011;40161;39.768;2.722;2023-07-22T11:43:58;9.68;;;3.60;;
54247;SDS011;40161;39.768;2.722;2023-07-22T11:46:25;9.60;;;3.28;;
54247;SDS011;40161;39.768;2.722;2023-07-22T11:48:52;10.88;;;3.60;;
54247;SDS011;40161;39.768;2.722;2023-07-22T11:51:22;9.70;;;3.33;;
54247;SDS011;40161;39.768;2.722;2023-07-22T11:53:49;10.25;;;3.50;;
54247;SDS011;40161;39.768;2.722;2023-07-22T11:56:23;9.30;;;3.42;;
54247;SDS011;40161;39.768;2.722;2023-07-22T11:58:52;8.90;;;3.72;;
54247;SDS011;40161;39.768;2.722;2023-07-22T12:01:19;7.53;;;3.35;;
54247;SDS011;40161;39.768;2.722;2023-07-22T12:03:45;7.45;;;3.53;;
54247;SDS011;40161;39.768;2.722;2023-07-22T12:06:11;8.30;;;3.15;;
54247;SDS011;40161;39.768;2.722;2023-07-22T12:08:42;10.93;;;3.50;;
54247;SDS011;40161;39.768;2.722;2023-07-22T12:11:19;9.65;;;3.33;;
54247;SDS011;40161;39.768;2.722;2023-07-22T12:16:36;8.30;;;3.83;;
54247;SDS011;40161;39.768;2.722;2023-07-22T12:19:03;8.25;;;2.92;;
54247;SDS011;40161;39.768;2.722;2023-07-22T12:21:29;7.60;;;3.28;;
54247;SDS011;40161;39.768;2.722;2023-07-22T12:23:55;10.98;;;3.30;;
54247;SDS011;40161;39.768;2.722;2023-07-22T12:26:21;9.32;;;3.45;;
54247;SDS011;40161;39.768;2.722;2023-07-22T12:28:47;8.68;;;3.58;;
54247;SDS011;40161;39.768;2.722;2023-07-22T12:31:12;9.82;;;3.45;;
54247;SDS011;40161;39.768;2.722;2023-07-22T12:33:38;9.98;;;4.22;;
54247;SDS011;40161;39.768;2.722;2023-07-22T12:36:03;9.90;;;3.72;;
54247;SDS011;40161;39.768;2.722;2023-07-22T12:38:30;10.07;;;3.72;;
54247;SDS011;40161;39.768;2.722;2023-07-22T12:40:56;10.35;;;3.45;;
54247;SDS011;40161;39.768;2.722;2023-07-22T12:43:21;7.10;;;3.55;;
54247;SDS011;40161;39.768;2.722;2023-07-22T12:45:47;11.63;;;3.58;;
54247;SDS011;40161;39.768;2.722;2023-07-22T12:48:12;11.23;;;4.18;;
54247;SDS011;40161;39.768;2.722;2023-07-22T12:50:38;8.57;;;3.67;;
54247;SDS011;40161;39.768;2.722;2023-07-22T12:53:04;9.50;;;3.67;;
54247;SDS011;40161;39.768;2.722;2023-07-22T12:55:29;7.57;;;3.28;;
54247;SDS011;40161;39.768;2.722;2023-07-22T12:57:55;8.93;;;3.45;;
54247;SDS011;40161;39.768;2.722;2023-07-22T13:00:20;8.88;;;3.60;;
54247;SDS011;40161;39.768;2.722;2023-07-22T13:02:46;8.30;;;3.28;;
54247;SDS011;40161;39.768;2.722;2023-07-22T13:05:13;8.88;;;3.40;;
54247;SDS011;40161;39.768;2.722;2023-07-22T13:07:38;7.60;;;3.20;;
54247;SDS011;40161;39.768;2.722;2023-07-22T13:10:04;8.32;;;3.25;;
54247;SDS011;40161;39.768;2.722;2023-07-22T13:12:34;9.00;;;3.60;;
54247;SDS011;40161;39.768;2.722;2023-07-22T13:14:59;10.85;;;3.70;;
54247;SDS011;40161;39.768;2.722;2023-07-22T13:17:25;8.80;;;3.92;;
54247;SDS011;40161;39.768;2.722;2023-07-22T13:19:51;9.93;;;3.45;;
54247;SDS011;40161;39.768;2.722;2023-07-22T13:22:16;8.65;;;3.63;;
54247;SDS011;40161;39.768;2.722;2023-07-22T13:24:42;8.38;;;3.40;;
54247;SDS011;40161;39.768;2.722;2023-07-22T13:27:08;10.18;;;3.88;;
54247;SDS011;40161;39.768;2.722;2023-07-22T13:29:33;10.40;;;3.58;;
54247;SDS011;40161;39.768;2.722;2023-07-22T13:31:59;8.05;;;3.58;;
54247;SDS011;40161;39.768;2.722;2023-07-22T13:34:24;8.90;;;3.40;;
54247;SDS011;40161;39.768;2.722;2023-07-22T13:36:50;10.63;;;3.38;;
54247;SDS011;40161;39.768;2.722;2023-07-22T13:39:16;10.13;;;3.28;;
54247;SDS011;40161;39.768;2.722;2023-07-22T13:41:41;9.18;;;3.70;;
54247;SDS011;40161;39.768;2.722;2023-07-22T13:44:07;7.82;;;3.22;;
54247;SDS011;40161;39.768;2.722;2023-07-22T13:46:32;8.75;;;3.45;;
54247;SDS011;40161;39.768;2.722;2023-07-22T13:48:58;9.55;;;3.47;;
54247;SDS011;40161;39.768;2.722;2023-07-22T13:51:23;8.50;;;3.22;;
54247;SDS011;40161;39.768;2.722;2023-07-22T13:53:49;8.60;;;3.25;;
54247;SDS011;40161;39.768;2.722;2023-07-22T13:56:17;6.50;;;3.08;;
54247;SDS011;40161;39.768;2.722;2023-07-22T13:58:42;7.72;;;3.17;;
54247;SDS011;40161;39.768;2.722;2023-07-22T14:01:08;10.40;;;3.53;;
54247;SDS011;40161;39.768;2.722;2023-07-22T14:03:34;7.35;;;3.08;;
54247;SDS011;40161;39.768;2.722;2023-07-22T14:05:59;7.75;;;3.10;;
54247;SDS011;40161;39.768;2.722;2023-07-22T14:08:25;10.65;;;3.58;;
54247;SDS011;40161;39.768;2.722;2023-07-22T14:10:50;7.93;;;3.08;;
54247;SDS011;40161;39.768;2.722;2023-07-22T14:13:16;8.52;;;3.53;;
54247;SDS011;40161;39.768;2.722;2023-07-22T14:15:41;9.05;;;3.33;;
54247;SDS011;40161;39.768;2.722;2023-07-22T14:18:07;9.80;;;3.50;;
54247;SDS011;40161;39.768;2.722;2023-07-22T14:20:32;8.38;;;3.50;;
54247;SDS011;40161;39.768;2.722;2023-07-22T14:22:58;9.60;;;3.00;;
54247;SDS011;40161;39.768;2.722;2023-07-22T14:25:24;10.60;;;3.30;;
54247;SDS011;40161;39.768;2.722;2023-07-22T14:27:49;8.10;;;3.30;;
54247;SDS011;40161;39.768;2.722;2023-07-22T14:30:15;9.73;;;3.42;;
54247;SDS011;40161;39.768;2.722;2023-07-22T14:32:41;9.75;;;3.80;;
54247;SDS011;40161;39.768;2.722;2023-07-22T14:35:07;10.40;;;3.88;;
54247;SDS011;40161;39.768;2.722;2023-07-22T14:37:33;9.77;;;3.38;;
54247;SDS011;40161;39.768;2.722;2023-07-22T14:39:58;7.63;;;3.55;;
54247;SDS011;40161;39.768;2.722;2023-07-22T14:42:24;9.18;;;3.63;;
54247;SDS011;40161;39.768;2.722;2023-07-22T14:44:50;10.70;;;3.85;;
54247;SDS011;40161;39.768;2.722;2023-07-22T14:47:15;7.15;;;3.08;;
54247;SDS011;40161;39.768;2.722;2023-07-22T14:49:41;9.40;;;3.40;;
54247;SDS011;40161;39.768;2.722;2023-07-22T14:52:06;9.32;;;3.25;;
54247;SDS011;40161;39.768;2.722;2023-07-22T14:54:32;8.43;;;3.50;;
54247;SDS011;40161;39.768;2.722;2023-07-22T14:56:58;8.13;;;3.33;;
54247;SDS011;40161;39.768;2.722;2023-07-22T14:59:24;9.13;;;3.30;;
54247;SDS011;40161;39.768;2.722;2023-07-22T15:01:53;7.43;;;3.10;;
54247;SDS011;40161;39.768;2.722;2023-07-22T15:04:19;9.05;;;3.42;;
54247;SDS011;40161;39.768;2.722;2023-07-22T15:06:45;7.25;;;3.10;;